x

Mid Gulf - 180 Nm South Of Southwest Pass, La (42001) Wave Buoy

1:50am - Tue 2nd Sep 2014 All times are UTC.

  • Sig Wave height 4.6ft
  • Peak Period 7s
  • Average Period 5s
  • Wind
    11mph, 13mph gusts
  • Sea Temp 84°f
  • Air Temp 83°f
  • Sea Pressure 1016.5mb

More Historic Weather Station data

Upgrade to MSW Pro to gain access to the past 30 days of data for over 8000 Wavebouys and Weather Stations around the globe.

Join Pro

Comparision Forecast

View Surf forecast
   
Tue 09/02 1:50am 4.5ft 7s 5s 11 13 mph 1016.5mb 84f 83f
12:50am 4.5ft 7s 5s 13 16 mph 1015.9mb 84f 83f
Mon 09/01 11:50pm 5ft 7s 5s 13 16 mph 1015.6mb 84f 84f
10:50pm 4.5ft 7s 5s 13 16 mph 1015.5mb 84f 84f
9:50pm 4.5ft 7s 5s 13 16 mph 1015.5mb 84f 84f
8:50pm 4.5ft 7s 4s 16 18 mph 1016mb 84f 83f
7:50pm 4.5ft 7s 4s 20 22 mph 1016.6mb 84f 83f
6:50pm 3.5ft 7s 4s 16 20 mph 1017.4mb 84f 83f
5:50pm 3.5ft 6s 4s 18 20 mph 1017.5mb 84f 80f
4:50pm 3.5ft 6s 4s 18 20 mph 1017.6mb 84f 84f
3:50pm 4ft 5s 4s 18 20 mph 1017.5mb 84f 84f
2:50pm 4ft 5s 4s 18 20 mph 1017mb 84f 84f
1:50pm 3.5ft 7s 4s 18 20 mph 1016.4mb 84f 83f
12:50pm 4ft 5s 4s 16 18 mph 1016.2mb 84f 84f
11:50am 4ft 4s 4s 20 22 mph 1015.4mb 84f 84f
10:50am 4ft 8s 4s 20 25 mph 1014.9mb 84f 83f
9:50am 3.5ft 7s 4s 20 25 mph 1014.4mb 84f 83f
8:50am 3.5ft 8s 4s 22 27 mph 1014.5mb 84f 83f
7:50am 3.5ft 8s 5s 20 25 mph 1014.7mb 84f 83f
6:50am 3.5ft 7s 5s 16 20 mph 1015.2mb 84f 83f
5:50am 3.5ft 8s 5s 13 16 mph 1015.4mb 84f 83f
4:50am 3.5ft 7s 5s 16 20 mph 1016mb 84f 84f
3:50am 3.5ft 7s 4s 13 16 mph 1016.3mb 84f 84f
2:50am 3.5ft 6s 4s 13 16 mph 1016.3mb 84f 83f
1:50am 4ft 8s 4s 18 22 mph 1015.9mb 84f 84f
12:50am 3.5ft 8s 4s 18 22 mph 1015.5mb 85f 84f
Sun 08/31 11:50pm 3.5ft 7s 4s 18 20 mph 1015.4mb 85f 83f
10:50pm 4ft 4s 4s 16 20 mph 1015.3mb 85f 83f
9:50pm 4ft 5s 4s 18 20 mph 1015.3mb 85f 82f
8:50pm 4ft 5s 4s 16 25 mph 1015.8mb 85f 83f
7:50pm 3.5ft 8s 4s 16 20 mph 1016mb 85f 84f
6:50pm 3.5ft 7s 4s 18 20 mph 1016.1mb 85f 85f
5:50pm 3.5ft 8s 4s 16 20 mph 1016.5mb 85f 85f
4:50pm 3.5ft 5s 4s 16 18 mph 1017.3mb 85f 85f
3:50pm 3.5ft 5s 4s 13 16 mph 1017.3mb 85f 85f
2:50pm 3.5ft 7s 4s 16 20 mph 1017.3mb 84f 85f
1:50pm 4ft 5s 4s 18 20 mph 1016.7mb 84f 85f
12:50pm 4.5ft 7s 5s 18 20 mph 1016.1mb 84f 85f
11:50am 4.5ft 8s 4s 18 22 mph 1015.6mb 84f 85f
10:50am 4.5ft 8s 4s 20 25 mph 1015.3mb 85f 85f
9:50am 4.5ft 7s 5s 20 25 mph 1015.3mb 86f 85f
8:50am 3.5ft 7s 4s 22 25 mph 1015.1mb 86f 85f
7:50am 4ft 6s 4s 18 20 mph 1015.6mb 86f 85f
6:50am 3.5ft 7s 4s 18 20 mph 1016.4mb 86f 85f
5:50am 3.5ft 7s 4s 18 22 mph 1016.8mb 86f 85f
4:50am 3.5ft 7s 4s 16 18 mph 1016.9mb 86f 85f
3:50am 3.5ft 7s 5s 16 20 mph 1017.5mb 86f 85f
2:50am 3.5ft 6s 4s 16 18 mph 1017.4mb 86f 86f
1:50am 3.5ft 7s 5s 13 16 mph 1016.7mb 86f 86f
12:50am 3.5ft 7s 5s 13 18 mph 1015.9mb 86f 86f
Sat 08/30 11:50pm 3.5ft 7s 5s 13 16 mph 1015.4mb 86f 85f
10:50pm 4ft 7s 5s 13 16 mph 1015.3mb 86f 86f
9:50pm 3.5ft 7s 5s 9 11 mph 1015.7mb 87f 85f
8:50pm 4ft 7s 5s 13 16 mph 1015.6mb 86f 85f
7:50pm 4.5ft 7s 5s 16 20 mph 1016.1mb 86f 85f
6:50pm 4ft 7s 5s 18 20 mph 1016.5mb 86f 86f
5:50pm 4ft 6s 4s 18 20 mph 1016.7mb 86f 85f
4:50pm 4ft 7s 4s 18 20 mph 1016.7mb 86f 85f
3:50pm 4.5ft 6s 4s 18 20 mph 1017mb 86f 85f
2:50pm 4.5ft 6s 4s 18 20 mph 1016.7mb 86f 85f
1:50pm 4.5ft 6s 4s 20 22 mph 1015.8mb 86f 85f
12:50pm 4.5ft 7s 4s 20 25 mph 1015.4mb 86f 85f
11:50am 4.5ft 6s 4s 20 25 mph 1015.1mb 86f 85f
10:50am 4.5ft 6s 4s 20 25 mph 1015.2mb 86f 85f
9:50am 4.5ft 6s 4s 20 25 mph 1015.1mb 86f 85f
8:50am 4.5ft 6s 4s 22 27 mph 1015.1mb 86f 85f
7:50am 4.5ft 7s 4s 22 25 mph 1015.1mb 86f 85f
6:50am 4.5ft 7s 5s 20 25 mph 1015.4mb 86f 85f
5:50am 4.5ft 7s 5s 20 25 mph 1016mb 86f 85f
4:50am 4.5ft 7s 5s 18 20 mph 1016.3mb 86f 85f
3:50am 4.5ft 7s 5s 18 22 mph 1016.3mb 86f 85f
2:50am 4.5ft 6s 5s 18 22 mph 1015.7mb 86f 85f
1:50am 4.5ft 7s 5s 16 20 mph 1015mb 86f 85f
12:50am 4.5ft 7s 5s 16 20 mph 1014.2mb 86f 85f
Fri 08/29 11:50pm 4.5ft 6s 5s 16 18 mph 1013.9mb 86f 85f
10:50pm 4.5ft 6s 5s 13 16 mph 1013.7mb 86f 84f
9:50pm 4.5ft 6s 5s 16 18 mph 1013.5mb 86f 83f
8:50pm 4.5ft 6s 4s 16 20 mph 1013.5mb 87f 84f
7:50pm 4ft 6s 4s 16 20 mph 1013.6mb 87f 84f
6:50pm 3.5ft 6s 4s 20 22 mph 1013.5mb 87f 85f
5:50pm 4.5ft 6s 4s 18 22 mph 1014.1mb 87f 86f
4:50pm 4ft 6s 4s 18 22 mph 1013.9mb 87f 85f
3:50pm 3.5ft 6s 4s 16 20 mph 1014.5mb 86f 86f
2:50pm 3.5ft 6s 4s 18 20 mph 1013.8mb 86f 85f
1:50pm 3.5ft 5s 4s 18 22 mph 1012.8mb 86f 84f
12:50pm 3.5ft 4s 4s 16 18 mph 1012.6mb 86f 82f
11:50am 3.5ft 5s 4s 20 40 mph 1013.2mb 86f 77f
10:50am 3.5ft 4s 4s 18 20 mph 1012.6mb 86f 85f
9:50am 3.5ft 5s 4s 18 22 mph 1012mb 87f 85f
8:50am 4ft 4s 4s 18 20 mph 1011.9mb 87f 85f
7:50am 4ft 6s 4s 18 22 mph 1012.2mb 87f 85f
6:50am 4ft 6s 4s 16 20 mph 1012.4mb 87f 85f
5:50am 3.5ft 6s 4s 18 20 mph 1012.5mb 87f 85f
4:50am 3.5ft 7s 5s 18 22 mph 1013.1mb 87f 85f
3:50am 4ft 6s 5s 18 20 mph 1012.8mb 87f 85f